createdAt,value
2023-04-14T00:00:03.550Z,88.35
2023-04-14T00:02:40.492Z,88.45
2023-04-14T00:05:09.336Z,88.11
2023-04-14T00:07:38.668Z,87.95
2023-04-14T00:10:07.476Z,88.40
2023-04-14T00:12:35.616Z,88.68
2023-04-14T00:15:03.526Z,88.34
2023-04-14T00:17:32.432Z,88.76
2023-04-14T00:20:00.387Z,88.82
2023-04-14T00:22:28.230Z,88.78
2023-04-14T00:24:57.588Z,88.65
2023-04-14T00:27:25.653Z,88.20
2023-04-14T00:29:53.517Z,88.38
2023-04-14T00:32:21.542Z,88.18
2023-04-14T00:34:49.583Z,88.61
2023-04-14T00:37:17.587Z,88.48
2023-04-14T00:39:45.613Z,88.10
2023-04-14T00:42:14.832Z,88.25
2023-04-14T00:44:42.631Z,87.30
2023-04-14T00:47:10.609Z,84.96
2023-04-14T00:49:38.799Z,83.65
2023-04-14T00:52:07.103Z,80.81
2023-04-14T00:54:36.914Z,80.00
2023-04-14T00:57:07.390Z,79.57
2023-04-14T00:59:38.218Z,79.06
2023-04-14T01:02:06.467Z,79.74
2023-04-14T01:04:52.068Z,79.25
2023-04-14T01:07:23.341Z,80.92
2023-04-14T01:09:51.760Z,79.74
2023-04-14T01:12:29.665Z,79.75
2023-04-14T01:15:12.022Z,79.48
2023-04-14T01:17:46.923Z,80.31
2023-04-14T01:20:28.281Z,78.72
2023-04-14T01:23:03.061Z,78.79
2023-04-14T01:26:17.956Z,79.52
2023-04-14T01:29:25.773Z,80.04
2023-04-14T01:32:03.030Z,78.90
2023-04-14T01:34:35.137Z,78.15
2023-04-14T01:37:07.716Z,78.72
2023-04-14T01:39:39.681Z,80.27
2023-04-14T01:42:10.153Z,80.52
2023-04-14T01:44:40.425Z,80.33
2023-04-14T01:47:13.709Z,80.75
2023-04-14T01:49:43.700Z,81.34
2023-04-14T01:52:14.359Z,80.78
2023-04-14T01:54:44.249Z,79.93
2023-04-14T01:57:15.708Z,81.49
2023-04-14T01:59:44.933Z,81.25
2023-04-14T02:02:16.365Z,81.71
2023-04-14T02:04:45.697Z,81.89
2023-04-14T02:07:14.369Z,82.97
2023-04-14T02:09:44.352Z,83.30
2023-04-14T02:12:13.401Z,83.34
2023-04-14T02:14:43.273Z,83.07
2023-04-14T02:17:12.525Z,84.14
2023-04-14T02:19:45.007Z,84.18
2023-04-14T02:22:13.142Z,84.00
2023-04-14T02:24:41.373Z,84.13
2023-04-14T02:27:17.203Z,84.61
2023-04-14T02:29:53.107Z,83.87
2023-04-14T02:32:23.439Z,84.15
2023-04-14T02:34:56.676Z,84.91
2023-04-14T02:37:28.371Z,84.74
2023-04-14T02:40:02.533Z,85.07
2023-04-14T02:42:35.611Z,84.83
2023-04-14T02:45:06.850Z,84.36
2023-04-14T02:47:39.160Z,84.80
2023-04-14T02:50:13.732Z,85.35
2023-04-14T02:52:51.352Z,85.21
2023-04-14T02:55:22.428Z,84.83
2023-04-14T02:57:52.989Z,85.33
2023-04-14T03:00:22.746Z,85.64
2023-04-14T03:02:54.475Z,86.20
2023-04-14T03:05:25.594Z,85.07
2023-04-14T03:08:02.286Z,86.24
2023-04-14T03:10:30.411Z,84.94
2023-04-14T03:12:59.678Z,85.93
2023-04-14T03:15:28.097Z,85.00
2023-04-14T03:17:57.758Z,85.70
2023-04-14T03:20:29.985Z,85.48
2023-04-14T03:23:01.942Z,85.28
2023-04-14T03:25:36.600Z,86.01
2023-04-14T03:28:10.679Z,85.94
2023-04-14T03:30:44.404Z,86.64
2023-04-14T03:33:18.118Z,86.31
2023-04-14T03:35:48.250Z,86.94
2023-04-14T03:38:17.304Z,87.36
2023-04-14T03:40:48.399Z,87.75
2023-04-14T03:43:22.796Z,87.40
2023-04-14T03:45:58.136Z,87.39
2023-04-14T03:48:29.873Z,87.57
2023-04-14T03:51:02.249Z,87.01
2023-04-14T03:53:31.432Z,87.83
2023-04-14T03:56:00.944Z,87.84
2023-04-14T03:58:30.559Z,86.77
2023-04-14T04:00:59.091Z,87.60
2023-04-14T04:03:29.137Z,87.05
2023-04-14T04:06:00.693Z,86.59
2023-04-14T04:08:29.796Z,87.14
2023-04-14T04:10:59.112Z,87.22
2023-04-14T04:13:28.786Z,86.96
2023-04-14T04:15:57.300Z,87.44
2023-04-14T04:18:28.087Z,86.80
2023-04-14T04:21:00.868Z,87.35
2023-04-14T04:23:33.955Z,87.12
2023-04-14T04:26:02.096Z,87.94
2023-04-14T04:28:38.132Z,87.67
2023-04-14T04:31:07.224Z,87.63
2023-04-14T04:33:36.069Z,87.33
2023-04-14T04:36:06.599Z,87.15
2023-04-14T04:38:40.623Z,87.80
2023-04-14T04:41:08.601Z,87.43
2023-04-14T04:43:37.606Z,88.26
2023-04-14T04:46:25.881Z,86.97
2023-04-14T04:48:56.392Z,87.43
2023-04-14T04:51:28.805Z,86.75
2023-04-14T04:53:58.267Z,87.80
2023-04-14T04:56:26.232Z,88.22
2023-04-14T04:58:54.418Z,87.67
2023-04-14T05:01:22.411Z,87.58
2023-04-14T05:03:50.495Z,87.24
2023-04-14T05:06:18.452Z,87.51
2023-04-14T05:08:47.804Z,87.69
2023-04-14T05:11:15.677Z,87.30
2023-04-14T05:13:43.640Z,88.35
2023-04-14T05:16:13.680Z,88.54
2023-04-14T05:18:42.971Z,87.99
2023-04-14T05:21:13.690Z,88.33
2023-04-14T05:23:43.675Z,88.39
2023-04-14T05:26:38.871Z,88.25
2023-04-14T05:29:02.224Z,88.76
2023-04-14T05:31:30.458Z,88.78
2023-04-14T05:33:58.585Z,88.74
2023-04-14T05:36:27.429Z,89.17
2023-04-14T05:38:55.360Z,88.76
2023-04-14T05:41:24.651Z,88.66
2023-04-14T05:43:52.522Z,87.14
2023-04-14T05:46:20.739Z,88.50
2023-04-14T05:48:48.525Z,88.65
2023-04-14T05:51:16.684Z,88.98
2023-04-14T05:53:44.530Z,88.49
2023-04-14T05:56:12.508Z,88.39
2023-04-14T05:58:41.724Z,87.44
2023-04-14T06:01:09.601Z,86.33
2023-04-14T06:03:40.073Z,86.99
2023-04-14T06:06:08.784Z,85.05
2023-04-14T06:08:36.668Z,84.14
2023-04-14T06:11:05.290Z,83.86
2023-04-14T06:13:34.936Z,83.08
2023-04-14T06:16:05.939Z,81.77
2023-04-14T06:18:33.991Z,80.53
2023-04-14T06:21:02.971Z,79.00
2023-04-14T06:23:31.615Z,79.34
2023-04-14T06:25:59.580Z,80.92
2023-04-14T06:28:27.466Z,79.42
2023-04-14T06:30:55.434Z,79.07
2023-04-14T06:33:24.933Z,77.71
2023-04-14T06:35:52.849Z,76.24
2023-04-14T06:38:20.630Z,76.63
2023-04-14T06:40:48.613Z,76.34
2023-04-14T06:43:17.809Z,75.71
2023-04-14T06:45:45.747Z,76.04
2023-04-14T06:48:13.984Z,76.10
2023-04-14T06:50:44.300Z,77.90
2023-04-14T06:53:12.499Z,75.88
2023-04-14T06:55:42.195Z,77.49
2023-04-14T06:58:10.083Z,76.98
2023-04-14T07:00:38.086Z,76.92
2023-04-14T07:03:06.444Z,77.48
2023-04-14T07:05:34.428Z,76.37
2023-04-14T07:08:03.786Z,75.07
2023-04-14T07:10:31.766Z,74.76
2023-04-14T07:12:59.692Z,73.97
2023-04-14T07:15:27.623Z,72.55
2023-04-14T07:17:57.317Z,72.61
2023-04-14T07:20:27.186Z,70.08
2023-04-14T07:22:55.565Z,69.66
2023-04-14T07:25:24.883Z,66.94
2023-04-14T07:28:02.740Z,66.22
2023-04-14T07:30:31.918Z,65.68
2023-04-14T07:33:02.271Z,65.67
2023-04-14T07:35:30.299Z,64.83
2023-04-14T07:37:58.202Z,64.68
2023-04-14T07:40:27.511Z,64.49
2023-04-14T07:42:55.498Z,63.48
2023-04-14T07:45:23.637Z,60.78
2023-04-14T07:47:52.199Z,62.06
2023-04-14T07:50:20.451Z,61.27
2023-04-14T07:52:48.360Z,60.94
2023-04-14T07:55:16.597Z,59.08
2023-04-14T07:57:45.944Z,59.62
2023-04-14T08:00:15.543Z,59.78
2023-04-14T08:02:43.852Z,58.47
2023-04-14T08:05:12.083Z,58.91
2023-04-14T08:07:40.103Z,57.67
2023-04-14T08:10:08.810Z,57.23
2023-04-14T08:12:36.834Z,56.32
2023-04-14T08:15:07.004Z,56.71
2023-04-14T08:17:34.918Z,57.61
2023-04-14T08:20:03.024Z,58.59
2023-04-14T08:22:30.999Z,57.12
2023-04-14T08:24:58.878Z,57.29
2023-04-14T08:27:26.775Z,56.83
2023-04-14T08:29:54.800Z,57.24
2023-04-14T08:32:24.269Z,52.80
2023-04-14T08:35:39.581Z,53.46
2023-04-14T08:37:44.350Z,52.18
2023-04-14T08:40:13.212Z,52.48
2023-04-14T08:42:41.091Z,52.92
2023-04-14T08:45:09.654Z,54.40
2023-04-14T08:47:41.335Z,53.49
2023-04-14T08:50:16.619Z,53.81
2023-04-14T08:52:46.924Z,53.72
2023-04-14T08:55:16.131Z,53.67
2023-04-14T08:57:46.459Z,54.82
2023-04-14T09:00:15.908Z,53.82
2023-04-14T09:02:46.988Z,54.11
2023-04-14T09:05:15.463Z,54.08
2023-04-14T09:07:43.743Z,54.02
2023-04-14T09:10:12.844Z,53.72
2023-04-14T09:12:41.930Z,53.28
2023-04-14T09:15:11.402Z,54.20
2023-04-14T09:17:39.419Z,52.98
2023-04-14T09:20:38.783Z,53.31
2023-04-14T09:22:57.806Z,51.92
2023-04-14T09:25:26.252Z,51.78
2023-04-14T09:27:54.312Z,52.06
2023-04-14T09:30:22.527Z,52.75
2023-04-14T09:32:53.582Z,51.65
2023-04-14T09:35:23.077Z,51.08
2023-04-14T09:37:51.068Z,50.26
2023-04-14T09:40:32.006Z,50.07
2023-04-14T09:43:00.475Z,49.50
2023-04-14T09:45:42.567Z,49.10
2023-04-14T09:48:12.879Z,50.38
2023-04-14T09:51:06.668Z,50.33
2023-04-14T09:53:35.999Z,49.91
2023-04-14T09:56:06.258Z,49.34
2023-04-14T09:58:35.879Z,50.48
2023-04-14T10:01:04.580Z,49.52
2023-04-14T10:03:39.449Z,50.09
2023-04-14T10:06:10.708Z,49.41
2023-04-14T10:08:41.061Z,51.41
2023-04-14T10:11:17.171Z,51.35
2023-04-14T10:13:45.658Z,50.07
2023-04-14T10:16:13.649Z,48.93
2023-04-14T10:18:41.546Z,49.18
2023-04-14T10:21:11.423Z,49.08
2023-04-14T10:23:41.296Z,48.75
2023-04-14T10:26:09.916Z,49.24
2023-04-14T10:28:40.835Z,47.08
2023-04-14T10:31:12.346Z,47.84
2023-04-14T10:33:42.062Z,48.26
2023-04-14T10:36:11.581Z,48.82
2023-04-14T10:38:44.087Z,48.19
2023-04-14T10:41:12.943Z,47.26
2023-04-14T10:43:41.741Z,46.52
2023-04-14T10:46:11.076Z,44.83
2023-04-14T10:48:40.401Z,45.96
2023-04-14T10:51:11.816Z,45.41
2023-04-14T10:53:45.833Z,44.89
2023-04-14T10:56:14.302Z,46.16
2023-04-14T10:58:42.161Z,44.83
2023-04-14T11:01:24.299Z,46.12
2023-04-14T11:03:52.626Z,47.92
2023-04-14T11:06:57.171Z,48.08
2023-04-14T11:09:34.212Z,47.13
2023-04-14T11:12:07.335Z,46.77
2023-04-14T11:14:36.593Z,45.73
2023-04-14T11:17:06.393Z,46.86
2023-04-14T11:19:34.498Z,46.16
2023-04-14T11:22:03.801Z,47.47
2023-04-14T11:24:32.468Z,47.59
2023-04-14T11:27:00.634Z,46.57
2023-04-14T11:29:28.492Z,46.12
2023-04-14T11:32:04.090Z,46.33
2023-04-14T11:34:32.768Z,46.30
2023-04-14T11:37:05.038Z,44.90
2023-04-14T11:39:35.259Z,43.63
2023-04-14T11:42:03.538Z,42.92
2023-04-14T11:44:31.836Z,45.03
2023-04-14T11:46:59.791Z,43.84
2023-04-14T11:49:36.591Z,43.78
2023-04-14T11:52:07.767Z,42.98
2023-04-14T11:54:37.141Z,45.04
2023-04-14T11:57:10.976Z,43.78
2023-04-14T11:59:43.591Z,44.54
2023-04-14T12:02:18.235Z,44.11
2023-04-14T12:04:47.230Z,43.38
2023-04-14T12:07:18.125Z,43.74
2023-04-14T12:09:48.870Z,44.26
2023-04-14T12:12:18.105Z,42.95
2023-04-14T12:14:47.295Z,43.50
2023-04-14T12:17:16.402Z,44.81
2023-04-14T12:19:45.638Z,42.97
2023-04-14T12:22:13.475Z,43.71
2023-04-14T12:24:44.135Z,43.19
2023-04-14T12:27:12.811Z,43.83
2023-04-14T12:29:44.784Z,42.45
2023-04-14T12:32:13.142Z,41.71
2023-04-14T12:34:41.284Z,42.68
2023-04-14T12:37:10.819Z,42.73
2023-04-14T12:39:57.578Z,41.55
2023-04-14T12:42:25.957Z,42.79
2023-04-14T12:44:58.900Z,43.37
2023-04-14T12:47:31.424Z,42.65
2023-04-14T12:50:01.404Z,42.56
2023-04-14T12:52:37.035Z,42.31
2023-04-14T12:55:08.925Z,41.81
2023-04-14T12:57:37.127Z,41.39
2023-04-14T13:00:05.833Z,42.71
2023-04-14T13:02:35.580Z,42.34
2023-04-14T13:05:05.027Z,43.24
2023-04-14T13:07:33.097Z,42.67
2023-04-14T13:10:01.291Z,42.10
2023-04-14T13:12:30.677Z,42.56
2023-04-14T13:14:58.540Z,41.64
2023-04-14T13:17:26.751Z,41.17
2023-04-14T13:19:56.936Z,40.74
2023-04-14T13:22:25.542Z,39.71
2023-04-14T13:24:53.815Z,41.61
2023-04-14T13:27:21.775Z,40.90
2023-04-14T13:29:51.170Z,39.99
2023-04-14T13:32:19.477Z,41.41
2023-04-14T13:34:47.856Z,40.90
2023-04-14T13:37:16.740Z,42.18
2023-04-14T13:39:44.965Z,42.22
2023-04-14T13:42:13.081Z,42.75
2023-04-14T13:44:41.505Z,42.54
2023-04-14T13:47:10.926Z,42.77
2023-04-14T13:49:38.949Z,41.75
2023-04-14T13:52:07.697Z,40.79
2023-04-14T13:54:36.344Z,41.47
2023-04-14T13:57:04.445Z,42.12
2023-04-14T13:59:33.121Z,41.54
2023-04-14T14:02:01.338Z,41.39
2023-04-14T14:04:30.931Z,43.03
2023-04-14T14:06:59.521Z,41.67
2023-04-14T14:09:27.629Z,42.16
2023-04-14T14:11:56.077Z,39.96
2023-04-14T14:14:24.181Z,38.38
2023-04-14T14:16:52.308Z,40.28
2023-04-14T14:19:20.383Z,40.68
2023-04-14T14:21:49.715Z,41.93
2023-04-14T14:24:17.847Z,41.29
2023-04-14T14:26:45.915Z,40.47
2023-04-14T14:29:14.025Z,40.99
2023-04-14T14:31:42.097Z,46.84
2023-04-14T14:34:10.220Z,41.57
2023-04-14T14:36:38.331Z,41.45
2023-04-14T14:39:09.176Z,41.90
2023-04-14T14:41:37.459Z,40.93
2023-04-14T14:44:05.740Z,40.45
2023-04-14T14:46:34.717Z,39.75
2023-04-14T14:49:03.177Z,39.77
2023-04-14T14:51:31.804Z,39.85
2023-04-14T14:54:09.333Z,40.63
2023-04-14T14:56:39.611Z,42.89
2023-04-14T14:59:08.459Z,40.97
2023-04-14T15:01:36.690Z,40.97
2023-04-14T15:04:06.366Z,40.89
2023-04-14T15:06:35.933Z,41.77
2023-04-14T15:09:05.470Z,42.29
2023-04-14T15:11:33.384Z,41.23
2023-04-14T15:14:03.389Z,40.87
2023-04-14T15:16:31.699Z,40.91
2023-04-14T15:18:59.630Z,41.50
2023-04-14T15:21:27.537Z,40.34
2023-04-14T15:23:55.428Z,40.93
2023-04-14T15:26:23.362Z,41.99
2023-04-14T15:28:51.259Z,40.83
2023-04-14T15:31:20.793Z,41.58
2023-04-14T15:33:48.921Z,40.78
2023-04-14T15:36:17.218Z,41.95
2023-04-14T15:38:46.969Z,41.15
2023-04-14T15:41:15.523Z,40.79
2023-04-14T15:43:43.522Z,40.70
2023-04-14T15:46:13.132Z,41.25
2023-04-14T15:48:42.618Z,41.41
2023-04-14T15:51:10.456Z,40.85
2023-04-14T15:53:38.474Z,40.63
2023-04-14T15:56:06.858Z,41.12
2023-04-14T15:58:35.336Z,41.73
2023-04-14T16:01:07.621Z,41.55
2023-04-14T16:03:36.251Z,41.67
2023-04-14T16:06:07.492Z,41.46
2023-04-14T16:08:36.359Z,42.00
2023-04-14T16:11:04.317Z,41.26
2023-04-14T16:13:32.240Z,41.83
2023-04-14T16:16:00.323Z,41.89
2023-04-14T16:18:28.341Z,41.18
2023-04-14T16:20:56.305Z,41.81
2023-04-14T16:23:25.695Z,42.27
2023-04-14T16:25:53.695Z,41.94
2023-04-14T16:28:22.900Z,42.46
2023-04-14T16:30:51.124Z,41.90
2023-04-14T16:33:19.117Z,42.25
2023-04-14T16:35:47.069Z,41.83
2023-04-14T16:38:15.046Z,42.19
2023-04-14T16:40:44.749Z,42.62
2023-04-14T16:43:13.868Z,43.36
2023-04-14T16:45:42.118Z,43.89
2023-04-14T16:48:10.542Z,42.29
2023-04-14T16:50:40.277Z,42.48
2023-04-14T16:53:08.231Z,42.47
2023-04-14T16:55:36.203Z,42.91
2023-04-14T16:58:05.719Z,42.76
2023-04-14T17:00:33.846Z,43.05
2023-04-14T17:03:02.370Z,42.78
2023-04-14T17:05:31.339Z,42.96
2023-04-14T17:07:59.494Z,42.88
2023-04-14T17:10:29.712Z,42.36
2023-04-14T17:12:57.831Z,42.91
2023-04-14T17:15:27.787Z,43.67
2023-04-14T17:17:56.035Z,43.52
2023-04-14T17:20:25.635Z,43.99
2023-04-14T17:22:54.533Z,44.30
2023-04-14T17:25:22.652Z,42.94
2023-04-14T17:27:50.759Z,44.29
2023-04-14T17:30:19.116Z,44.02
2023-04-14T17:32:49.346Z,44.43
2023-04-14T17:35:17.688Z,44.45
2023-04-14T17:37:45.867Z,44.29
2023-04-14T17:40:15.979Z,44.09
2023-04-14T17:42:44.076Z,43.82
2023-04-14T17:45:13.288Z,43.83
2023-04-14T17:47:41.753Z,43.94
2023-04-14T17:50:11.906Z,44.00
2023-04-14T17:52:40.110Z,43.60
2023-04-14T17:55:10.313Z,44.29
2023-04-14T17:57:38.862Z,44.17
2023-04-14T18:00:09.462Z,44.92
2023-04-14T18:02:43.350Z,44.17
2023-04-14T18:05:13.225Z,44.80
2023-04-14T18:07:42.845Z,44.16
2023-04-14T18:10:11.180Z,45.22
2023-04-14T18:12:39.235Z,46.10
2023-04-14T18:15:08.315Z,44.78
2023-04-14T18:17:36.462Z,45.45
2023-04-14T18:20:04.821Z,45.86
2023-04-14T18:22:34.866Z,45.84
2023-04-14T18:25:03.271Z,46.17
2023-04-14T18:30:02.955Z,46.27
2023-04-14T18:32:31.480Z,45.90
2023-04-14T18:34:59.812Z,46.50
2023-04-14T18:37:28.142Z,46.10
2023-04-14T18:39:57.861Z,46.37
2023-04-14T18:42:27.390Z,45.96
2023-04-14T18:44:55.526Z,46.31
2023-04-14T18:47:23.977Z,46.55
2023-04-14T18:49:52.392Z,47.96
2023-04-14T18:52:20.640Z,48.84
2023-04-14T18:54:49.477Z,49.55
2023-04-14T18:57:19.217Z,49.09
2023-04-14T18:59:47.771Z,50.38
2023-04-14T19:02:16.036Z,50.99
2023-04-14T19:04:44.964Z,52.24
2023-04-14T19:07:13.035Z,52.22
2023-04-14T19:09:41.296Z,53.46
2023-04-14T19:12:18.434Z,53.39
2023-04-14T19:14:56.898Z,54.78
2023-04-14T19:17:25.106Z,54.40
2023-04-14T19:19:53.164Z,54.46
2023-04-14T19:22:21.307Z,55.18
2023-04-14T19:24:51.011Z,55.78
2023-04-14T19:27:19.401Z,56.09
2023-04-14T19:29:47.612Z,55.70
2023-04-14T19:32:17.816Z,55.89
2023-04-14T19:34:46.083Z,56.31
2023-04-14T19:37:14.973Z,57.07
2023-04-14T19:39:43.016Z,57.16
2023-04-14T19:42:11.309Z,57.66
2023-04-14T19:44:39.446Z,58.38
2023-04-14T19:47:07.691Z,58.96
2023-04-14T19:49:37.592Z,59.07
2023-04-14T19:52:06.127Z,59.06
2023-04-14T19:54:34.561Z,59.14
2023-04-14T19:57:03.485Z,59.72
2023-04-14T19:59:32.868Z,60.15
2023-04-14T20:02:01.863Z,59.45
2023-04-14T20:04:30.077Z,60.11
2023-04-14T20:06:59.998Z,60.28
2023-04-14T20:09:28.103Z,59.80
2023-04-14T20:11:56.085Z,60.57
2023-04-14T20:14:24.213Z,60.96
2023-04-14T20:16:52.329Z,60.82
2023-04-14T20:19:21.154Z,61.23
2023-04-14T20:21:49.677Z,60.56
2023-04-14T20:24:19.018Z,59.80
2023-04-14T20:26:47.254Z,60.01
2023-04-14T20:29:16.264Z,59.68
2023-04-14T20:31:44.531Z,59.15
2023-04-14T20:34:13.412Z,59.33
2023-04-14T20:36:41.918Z,60.81
2023-04-14T20:39:09.853Z,62.14
2023-04-14T20:41:39.249Z,62.07
2023-04-14T20:44:07.472Z,61.52
2023-04-14T20:46:35.367Z,62.21
2023-04-14T20:49:03.757Z,63.11
2023-04-14T20:51:32.603Z,62.93
2023-04-14T20:54:01.274Z,63.13
2023-04-14T20:56:30.762Z,64.21
2023-04-14T20:59:00.445Z,64.73
2023-04-14T21:01:28.794Z,64.73
2023-04-14T21:03:57.270Z,64.79
2023-04-14T21:06:25.817Z,65.25
2023-04-14T21:08:53.722Z,65.52
2023-04-14T21:11:21.909Z,65.47
2023-04-14T21:15:30.410Z,66.28
2023-04-14T21:16:35.255Z,65.76
2023-04-14T21:19:04.335Z,65.30
2023-04-14T21:21:33.093Z,65.75
2023-04-14T21:24:01.581Z,66.22
2023-04-14T21:26:29.550Z,66.48
2023-04-14T21:28:57.617Z,65.01
2023-04-14T21:31:25.952Z,66.55
2023-04-14T21:33:55.610Z,66.31
2023-04-14T21:36:24.523Z,66.57
2023-04-14T21:38:52.565Z,67.15
2023-04-14T21:41:20.971Z,67.64
2023-04-14T21:43:48.934Z,67.49
2023-04-14T21:46:17.066Z,67.37
2023-04-14T21:48:45.068Z,66.34
2023-04-14T21:51:14.828Z,66.95
2023-04-14T21:53:42.784Z,66.88
2023-04-14T21:56:12.832Z,68.12
2023-04-14T21:58:41.359Z,68.51
2023-04-14T22:01:10.382Z,67.72
2023-04-14T22:03:40.599Z,68.58
2023-04-14T22:06:10.028Z,69.05
2023-04-14T22:08:40.270Z,69.06
2023-04-14T22:11:08.711Z,68.99
2023-04-14T22:13:37.073Z,69.64
2023-04-14T22:16:05.416Z,68.96
2023-04-14T22:18:33.518Z,69.43
2023-04-14T22:21:01.588Z,70.20
2023-04-14T22:23:29.692Z,69.94
2023-04-14T22:25:59.074Z,70.11
2023-04-14T22:28:27.255Z,69.95
2023-04-14T22:30:55.353Z,70.59
2023-04-14T22:33:23.383Z,70.85
2023-04-14T22:35:51.719Z,71.54
2023-04-14T22:38:19.700Z,71.64
2023-04-14T22:40:49.289Z,72.02
2023-04-14T22:43:19.847Z,72.08
2023-04-14T22:45:48.295Z,71.92
2023-04-14T22:48:16.470Z,71.87
2023-04-14T22:50:44.388Z,72.45
2023-04-14T22:53:12.361Z,72.46
2023-04-14T22:55:40.534Z,72.65
2023-04-14T22:58:09.538Z,72.92
2023-04-14T23:00:38.994Z,73.45
2023-04-14T23:03:09.788Z,73.21
2023-04-14T23:05:38.352Z,73.17
2023-04-14T23:08:06.995Z,72.92
2023-04-14T23:10:35.056Z,73.20
2023-04-14T23:13:03.533Z,73.39
2023-04-14T23:15:31.576Z,73.48
2023-04-14T23:18:01.670Z,73.82
2023-04-14T23:20:30.337Z,73.78
2023-04-14T23:22:58.378Z,73.95
2023-04-14T23:25:26.722Z,74.05
2023-04-14T23:27:54.840Z,74.52
2023-04-14T23:30:22.879Z,75.00
2023-04-14T23:32:51.014Z,74.08
2023-04-14T23:35:20.450Z,73.96
2023-04-14T23:37:48.455Z,74.44
2023-04-14T23:40:16.636Z,74.76
2023-04-14T23:42:44.936Z,75.15
2023-04-14T23:45:12.957Z,75.24
2023-04-14T23:47:41.447Z,75.25
2023-04-14T23:50:10.043Z,75.25
2023-04-14T23:52:39.610Z,76.26
2023-04-14T23:55:08.229Z,76.06
2023-04-14T23:57:36.336Z,76.20
